Time;durP1;ratioP1;P1;durP2;ratioP2;P2;SDS_P1;SDS_P2;PMS_P1;PMS_P2;Temp;Humidity;BMP_temperature;BMP_pressure;BME280_temperature;BME280_humidity;BME280_pressure;Samples;Min_cycle;Max_cycle;Signal;HPM_P1;HPM_P2
2022/03/24 00:00:57;;;;;;;9.32;6.97;;;;;;;19.85;28.96;102869.28;16140101;19;128960;-48
2022/03/24 00:06:19;;;;;;;14.60;7.60;;;;;;;19.82;29.09;102875.25;16144309;19;129206;-46
2022/03/24 00:11:41;;;;;;;13.23;8.77;;;;;;;19.80;29.09;102866.28;16145110;19;130111;-46
2022/03/24 00:17:03;;;;;;;12.35;8.20;;;;;;;19.77;29.33;102866.69;16143184;19;129359;-48
2022/03/24 00:22:26;;;;;;;11.68;8.07;;;;;;;19.73;29.22;102863.47;16143853;19;129413;-45
2022/03/24 00:27:48;;;;;;;10.85;7.85;;;;;;;19.71;29.25;102864.72;16142894;19;129594;-44
2022/03/24 00:33:11;;;;;;;10.73;7.50;;;;;;;19.66;29.39;102866.22;16143976;19;129816;-46
2022/03/24 00:38:34;;;;;;;10.18;7.07;;;;;;;19.65;29.12;102858.94;16142448;19;129312;-45
2022/03/24 00:43:56;;;;;;;9.65;7.20;;;;;;;19.63;29.26;102852.75;16143091;19;129156;-48
2022/03/24 00:49:18;;;;;;;12.57;7.45;;;;;;;19.60;29.45;102846.75;16142519;19;129552;-47
2022/03/24 00:54:40;;;;;;;10.85;7.53;;;;;;;19.56;29.08;102849.09;16140677;19;129865;-46
2022/03/24 01:00:02;;;;;;;11.23;7.63;;;;;;;19.54;29.33;102845.66;16138134;19;129905;-45
2022/03/24 01:05:28;;;;;;;9.35;7.45;;;;;;;19.52;29.56;102840.28;16140822;19;129255;-45
2022/03/24 01:10:51;;;;;;;9.98;7.35;;;;;;;19.50;29.08;102836.00;16144563;19;130624;-47
2022/03/24 01:16:13;;;;;;;9.85;7.30;;;;;;;19.48;29.17;102835.34;16137734;19;129242;-44
2022/03/24 01:21:36;;;;;;;8.98;6.43;;;;;;;19.45;29.46;102831.09;16135711;19;129506;-46
2022/03/24 01:26:59;;;;;;;9.65;7.07;;;;;;;19.44;29.20;102828.53;16144491;19;129470;-46
2022/03/24 01:32:22;;;;;;;8.85;7.20;;;;;;;19.42;29.46;102837.03;16142006;19;129806;-46
2022/03/24 01:37:44;;;;;;;9.95;7.35;;;;;;;19.40;29.13;102827.22;16139401;19;129378;-44
2022/03/24 01:43:08;;;;;;;10.70;7.45;;;;;;;19.37;29.18;102826.56;16140331;19;129997;-44
2022/03/24 01:48:30;;;;;;;9.90;6.90;;;;;;;19.35;29.49;102817.56;16162071;19;128988;-44
2022/03/24 01:53:57;;;;;;;8.88;6.93;;;;;;;19.35;29.19;102813.97;16207012;19;128613;-48
2022/03/24 01:59:20;;;;;;;10.23;6.88;;;;;;;19.34;29.25;102818.63;16198600;19;129119;-49
2022/03/24 02:04:43;;;;;;;10.57;6.45;;;;;;;19.31;29.51;102816.28;16205711;19;128890;-48
2022/03/24 02:10:08;;;;;;;8.23;6.82;;;;;;;19.29;29.40;102815.63;16203945;19;129110;-48
2022/03/24 02:15:32;;;;;;;8.63;6.70;;;;;;;19.28;29.24;102824.16;16206201;19;128476;-48
2022/03/24 02:20:54;;;;;;;10.68;7.38;;;;;;;19.25;29.49;102813.47;16200515;19;128761;-46
2022/03/24 02:26:17;;;;;;;10.63;6.88;;;;;;;19.24;29.31;102818.16;16205597;19;129337;-50
2022/03/24 02:31:44;;;;;;;10.35;7.45;;;;;;;19.22;29.51;102820.28;16204991;19;129501;-47
2022/03/24 02:37:11;;;;;;;12.30;7.95;;;;;;;19.21;29.54;102821.31;16202949;19;128629;-50
2022/03/24 02:42:33;;;;;;;9.20;7.13;;;;;;;19.19;29.68;102815.13;16203498;19;129058;-45
2022/03/24 02:47:55;;;;;;;11.30;7.50;;;;;;;19.18;29.44;102818.94;16201502;19;129494;-45
2022/03/24 02:53:17;;;;;;;8.70;6.43;;;;;;;19.17;29.75;102817.25;16203132;19;129905;-45
2022/03/24 02:58:38;;;;;;;9.75;6.60;;;;;;;19.14;29.45;102820.41;16197854;19;129148;-45
2022/03/24 03:04:00;;;;;;;9.07;7.05;;;;;;;19.14;29.60;102828.72;16202806;19;129605;-46
2022/03/24 03:09:22;;;;;;;9.05;6.80;;;;;;;19.12;29.76;102819.75;16199231;19;129842;-43
2022/03/24 03:14:48;;;;;;;9.90;6.70;;;;;;;19.10;29.79;102817.19;16202200;19;128931;-47
2022/03/24 03:20:10;;;;;;;9.50;7.05;;;;;;;19.07;29.69;102818.47;16198328;19;129036;-46
2022/03/24 03:25:32;;;;;;;9.77;7.07;;;;;;;19.07;29.32;102814.81;16204199;19;129416;-47
2022/03/24 03:30:54;;;;;;;10.93;7.40;;;;;;;19.05;29.84;102815.03;16201433;19;129886;-49
2022/03/24 03:36:16;;;;;;;9.02;6.88;;;;;;;19.04;29.65;102815.22;16200749;19;129220;-49
2022/03/24 03:41:39;;;;;;;8.90;7.50;;;;;;;19.03;29.34;102813.50;16198311;19;128664;-47
2022/03/24 03:47:01;;;;;;;10.18;6.65;;;;;;;19.02;29.36;102826.53;16196184;19;129864;-48
2022/03/24 03:52:23;;;;;;;9.10;7.28;;;;;;;19.00;29.78;102820.31;16194592;19;130383;-46
2022/03/24 03:57:45;;;;;;;10.98;7.32;;;;;;;18.99;29.51;102820.53;16197917;19;129234;-44
2022/03/24 04:03:06;;;;;;;11.45;8.18;;;;;;;18.95;29.43;102822.88;16212746;19;128541;-47
2022/03/24 04:08:28;;;;;;;12.10;8.50;;;;;;;18.95;29.42;102833.97;16206145;19;129355;-50
2022/03/24 04:13:50;;;;;;;11.73;7.88;;;;;;;18.92;29.34;102831.59;16211654;19;129403;-48
2022/03/24 04:19:12;;;;;;;9.65;8.10;;;;;;;18.90;29.53;102826.22;16212842;19;129027;-46
2022/03/24 04:24:34;;;;;;;10.45;7.93;;;;;;;18.89;29.68;102829.19;16214131;19;129405;-45
2022/03/24 04:29:56;;;;;;;9.18;7.85;;;;;;;18.87;29.69;102814.66;16207450;19;130303;-42
2022/03/24 04:35:19;;;;;;;8.50;7.38;;;;;;;18.87;29.33;102823.00;16209490;19;128884;-47
2022/03/24 04:40:41;;;;;;;9.90;7.78;;;;;;;18.85;29.26;102820.44;16203692;19;128466;-48
2022/03/24 04:46:04;;;;;;;9.20;7.72;;;;;;;18.84;29.61;102824.25;16203913;19;129233;-48
2022/03/24 04:51:25;;;;;;;9.05;7.15;;;;;;;18.84;29.85;102823.38;16209074;19;128806;-46
2022/03/24 04:56:47;;;;;;;8.68;6.80;;;;;;;18.97;29.67;102817.09;16198903;19;129255;-45
2022/03/24 05:02:12;;;;;;;9.82;6.55;;;;;;;19.33;29.09;102811.38;16201170;19;129776;-45
2022/03/24 05:07:34;;;;;;;6.97;6.23;;;;;;;19.96;28.77;102818.69;16207843;19;129774;-45
2022/03/24 05:12:55;;;;;;;8.63;6.60;;;;;;;20.46;27.97;102814.72;16142750;19;130504;-48
2022/03/24 05:18:17;;;;;;;8.80;6.20;;;;;;;20.77;27.81;102815.19;16142054;19;130024;-47
2022/03/24 05:23:39;;;;;;;6.60;5.85;;;;;;;20.87;27.45;102821.16;16143412;19;130052;-48
2022/03/24 05:29:01;;;;;;;9.15;6.00;;;;;;;20.86;27.86;102820.31;16143758;19;129527;-47
2022/03/24 05:34:23;;;;;;;8.38;6.10;;;;;;;20.80;27.85;102826.72;16146843;19;129835;-45
2022/03/24 05:39:45;;;;;;;7.82;5.88;;;;;;;20.70;27.97;102831.84;16141044;19;129421;-50
2022/03/24 05:45:07;;;;;;;7.00;5.88;;;;;;;20.59;27.86;102831.41;16135911;19;129432;-47
2022/03/24 05:50:29;;;;;;;7.25;5.88;;;;;;;20.46;28.21;102831.41;16141622;19;129240;-45
2022/03/24 05:55:53;;;;;;;8.07;6.50;;;;;;;20.33;28.31;102829.47;16140489;19;130468;-45
2022/03/24 06:01:15;;;;;;;6.72;6.03;;;;;;;20.20;28.07;102830.31;16137095;19;130185;-44
2022/03/24 06:06:37;;;;;;;9.60;6.82;;;;;;;20.09;28.18;102831.78;16139841;19;129985;-49
2022/03/24 06:12:00;;;;;;;8.20;6.72;;;;;;;20.02;28.61;102836.47;16140431;19;129809;-47
2022/03/24 06:17:21;;;;;;;11.15;6.70;;;;;;;19.95;28.98;102841.97;16137502;19;129952;-45
2022/03/24 06:22:49;;;;;;;10.70;6.78;;;;;;;19.94;28.97;102848.56;16129692;19;132597;-47
2022/03/24 06:28:11;;;;;;;10.63;6.43;;;;;;;19.94;29.47;102843.03;16139694;19;129660;-45
2022/03/24 06:33:34;;;;;;;12.05;6.60;;;;;;;19.98;29.30;102849.03;16139136;19;129084;-46
2022/03/24 06:38:55;;;;;;;11.18;7.40;;;;;;;20.01;29.26;102847.78;16137295;19;130584;-44
2022/03/24 06:44:18;;;;;;;11.70;6.55;;;;;;;20.04;29.66;102845.44;16126614;19;129492;-45
2022/03/24 06:49:40;;;;;;;11.73;7.15;;;;;;;20.11;30.01;102851.03;16137325;19;129683;-47
2022/03/24 06:55:03;;;;;;;14.35;6.93;;;;;;;20.12;29.97;102849.97;16135259;19;129319;-44
2022/03/24 07:00:25;;;;;;;16.08;8.07;;;;;;;20.12;29.54;102847.19;16131574;19;129622;-45
2022/03/24 07:05:47;;;;;;;13.48;8.10;;;;;;;20.13;29.49;102849.75;16133896;19;129028;-47
2022/03/24 07:11:09;;;;;;;13.20;8.20;;;;;;;20.15;29.76;102855.09;16134854;19;130482;-46
2022/03/24 07:16:30;;;;;;;15.80;8.23;;;;;;;20.17;29.46;102850.19;16132823;19;131015;-45
2022/03/24 07:21:52;;;;;;;20.75;9.50;;;;;;;20.20;29.21;102855.31;16130966;19;129399;-45
2022/03/24 07:27:17;;;;;;;16.02;9.45;;;;;;;20.29;29.09;102858.75;16132979;19;129190;-47
2022/03/24 07:32:42;;;;;;;17.63;10.80;;;;;;;20.49;28.75;102871.84;16135778;19;129369;-47
2022/03/24 07:38:07;;;;;;;19.63;11.00;;;;;;;20.77;28.31;102874.47;16146251;19;129505;-46
2022/03/24 07:43:29;;;;;;;18.70;12.40;;;;;;;21.23;28.08;102878.31;16145037;19;133006;-49
2022/03/24 07:48:51;;;;;;;19.58;12.02;;;;;;;21.69;27.06;102881.19;16150600;19;130227;-49
2022/03/24 07:54:13;;;;;;;20.20;12.10;;;;;;;21.93;26.91;102879.59;16150036;19;128996;-45
2022/03/24 07:59:35;;;;;;;19.00;11.45;;;;;;;22.03;26.72;102885.53;16147656;19;129599;-49
2022/03/24 08:04:56;;;;;;;14.57;10.27;;;;;;;22.13;26.75;102882.28;16151857;19;129636;-46
2022/03/24 08:10:18;;;;;;;16.33;11.38;;;;;;;22.88;26.41;102887.16;16149331;19;129407;-48
2022/03/24 08:15:41;;;;;;;13.23;10.60;;;;;;;25.77;22.91;102877.41;16151950;19;129797;-50
2022/03/24 08:21:02;;;;;;;15.40;10.10;;;;;;;26.47;21.90;102891.41;16145475;19;129088;-52
2022/03/24 08:26:27;;;;;;;16.67;9.65;;;;;;;24.82;23.82;102888.66;16148520;19;129414;-48
2022/03/24 08:31:50;;;;;;;;;;;;;;;23.94;24.27;102889.06;16147447;19;129464;-45
2022/03/24 08:37:12;;;;;;;13.50;10.05;;;;;;;23.38;24.80;102887.38;16147022;19;130108;-46
2022/03/24 08:42:37;;;;;;;20.08;11.07;;;;;;;22.91;25.48;102888.66;16139050;19;129517;-51
2022/03/24 08:47:59;;;;;;;16.73;10.55;;;;;;;22.56;25.90;102901.16;16145563;19;129623;-45
2022/03/24 08:53:20;;;;;;;15.43;10.02;;;;;;;22.31;26.02;102894.66;16145818;19;132443;-49
2022/03/24 08:58:43;;;;;;;15.20;9.38;;;;;;;22.10;26.59;102897.53;16145333;19;130554;-47
2022/03/24 09:04:05;;;;;;;15.80;10.05;;;;;;;21.94;26.83;102900.81;16145680;19;128865;-47
2022/03/24 09:09:30;;;;;;;15.15;9.63;;;;;;;21.86;27.11;102901.91;16145895;19;129551;-47
2022/03/24 09:14:51;;;;;;;15.27;10.45;;;;;;;21.86;26.86;102901.06;16143776;19;129373;-47
2022/03/24 09:20:18;;;;;;;16.27;10.02;;;;;;;21.90;27.00;102902.34;16142920;19;129183;-48
2022/03/24 09:25:43;;;;;;;19.27;10.40;;;;;;;21.95;27.22;102906.19;16144890;19;129693;-50
2022/03/24 09:31:05;;;;;;;;;;;;;;;21.97;27.53;102911.50;16140871;19;129636;-48
2022/03/24 09:36:27;;;;;;;18.02;10.32;;;;;;;22.03;26.98;102907.84;16144375;19;129068;-45
2022/03/24 09:41:49;;;;;;;15.00;9.88;;;;;;;22.03;27.33;102907.00;16139138;19;128899;-50
2022/03/24 09:47:12;;;;;;;19.00;9.43;;;;;;;22.04;27.12;102909.53;16138192;19;129606;-47
2022/03/24 09:52:34;;;;;;;17.30;9.40;;;;;;;22.22;26.89;102899.63;16143134;19;128913;-48
2022/03/24 09:57:56;;;;;;;13.43;8.63;;;;;;;22.43;26.96;102904.88;16142482;19;129668;-46
2022/03/24 10:03:34;;;;;;;11.23;8.25;;;;;;;22.63;26.74;102901.09;16138670;19;129503;-47
2022/03/24 10:08:56;;;;;;;12.13;8.98;;;;;;;22.74;26.76;102908.75;16142372;19;129056;-45
2022/03/24 10:14:22;;;;;;;13.13;9.30;;;;;;;22.77;26.60;102901.00;16141266;19;129029;-48
2022/03/24 10:20:00;;;;;;;12.57;8.27;;;;;;;22.75;26.75;102904.00;16137445;19;129088;-45
2022/03/24 10:25:29;;;;;;;11.73;8.85;;;;;;;22.69;27.01;102896.53;16139259;19;130217;-46
2022/03/24 10:31:03;;;;;;;12.23;8.35;;;;;;;22.63;26.87;102895.53;16140315;19;129375;-49
2022/03/24 10:36:26;;;;;;;12.02;8.48;;;;;;;22.57;27.01;102893.63;16139158;19;129674;-46
2022/03/24 10:41:49;;;;;;;12.10;9.02;;;;;;;22.50;26.93;102892.81;16136810;19;130541;-47
2022/03/24 10:47:11;;;;;;;11.48;8.70;;;;;;;22.43;26.92;102882.56;16135000;19;129809;-47
2022/03/24 10:52:35;;;;;;;11.18;8.55;;;;;;;22.37;26.95;102872.31;16139560;19;129006;-46
2022/03/24 10:57:58;;;;;;;11.35;7.93;;;;;;;22.31;26.94;102887.13;16139448;19;130372;-48
2022/03/24 11:03:21;;;;;;;10.68;8.07;;;;;;;22.26;27.39;102884.19;16135577;19;129284;-45
2022/03/24 11:08:50;;;;;;;11.82;8.10;;;;;;;22.21;26.89;102884.00;16137754;19;130258;-47
2022/03/24 11:14:13;;;;;;;9.77;8.02;;;;;;;22.15;27.27;102874.56;16137529;19;129361;-47
2022/03/24 11:19:38;;;;;;;12.82;8.02;;;;;;;22.10;27.37;102875.22;16136440;19;130448;-45
2022/03/24 11:25:00;;;;;;;;;;;;;;;22.04;27.41;102869.69;16137781;19;129583;-48
2022/03/24 11:30:24;;;;;;;12.30;7.40;;;;;;;22.06;27.40;102867.53;16137399;19;129304;-47
2022/03/24 11:35:49;;;;;;;10.52;7.35;;;;;;;22.01;27.32;102865.41;16136507;19;129075;-47
2022/03/24 11:41:22;;;;;;;9.13;6.55;;;;;;;21.99;27.33;102856.41;16132620;19;129829;-48
2022/03/24 11:46:54;;;;;;;9.43;7.20;;;;;;;21.96;27.15;102845.72;16127548;19;130424;-45
2022/03/24 11:52:21;;;;;;;12.30;7.63;;;;;;;21.94;26.87;102842.28;16134332;19;130575;-45
2022/03/24 11:57:59;;;;;;;8.68;6.78;;;;;;;21.91;27.10;102842.75;16135014;19;129635;-46
2022/03/24 12:03:41;;;;;;;12.43;7.80;;;;;;;21.85;26.97;102840.84;16128430;19;129186;-47
2022/03/24 12:09:05;;;;;;;12.10;7.97;;;;;;;21.77;26.62;102842.81;16130451;19;129385;-46
2022/03/24 12:14:32;;;;;;;17.40;8.25;;;;;;;21.71;26.15;102826.13;16125054;19;130122;-51
2022/03/24 12:19:55;;;;;;;15.35;9.07;;;;;;;21.62;25.90;102828.31;16127359;19;129508;-45
2022/03/24 12:25:22;;;;;;;12.65;8.23;;;;;;;21.53;25.84;102816.53;16145026;19;129477;-47
2022/03/24 12:30:45;;;;;;;15.30;8.45;;;;;;;21.48;25.96;102816.31;16146662;19;130057;-45
2022/03/24 12:36:13;;;;;;;14.52;8.60;;;;;;;21.38;26.18;102808.44;16148019;19;129463;-48
2022/03/24 12:41:35;;;;;;;12.95;8.63;;;;;;;21.31;25.89;102805.69;16144444;19;129526;-47
2022/03/24 12:46:59;;;;;;;12.98;8.10;;;;;;;21.25;25.68;102795.41;16141234;19;130572;-48
2022/03/24 12:52:21;;;;;;;12.75;8.23;;;;;;;21.19;25.87;102790.72;16147147;19;129200;-46
2022/03/24 12:58:12;;;;;;;16.17;9.15;;;;;;;21.13;25.52;102780.44;16146275;19;129209;-46
2022/03/24 13:03:34;;;;;;;16.30;9.07;;;;;;;21.06;25.32;102786.03;16141158;19;129604;-47
2022/03/24 13:09:29;;;;;;;13.18;8.38;;;;;;;21.00;25.40;102773.84;16142581;19;129069;-46
2022/03/24 13:14:51;;;;;;;11.40;7.70;;;;;;;20.95;25.12;102772.78;16139860;19;129386;-45
2022/03/24 13:20:13;;;;;;;17.55;8.60;;;;;;;20.89;25.25;102769.81;16144706;19;130983;-46
2022/03/24 13:25:34;;;;;;;15.73;7.25;;;;;;;20.86;25.37;102767.47;16144408;19;129524;-45
2022/03/24 13:30:56;;;;;;;16.17;7.85;;;;;;;20.83;25.08;102761.50;16138968;19;128853;-45
2022/03/24 13:36:19;;;;;;;11.90;7.15;;;;;;;20.81;25.18;102758.91;16139357;19;130674;-45
2022/03/24 13:41:42;;;;;;;11.05;7.05;;;;;;;20.77;25.37;102749.31;16138048;19;129356;-44
2022/03/24 13:47:04;;;;;;;16.55;7.70;;;;;;;20.72;24.54;102757.41;16137178;19;129181;-45
2022/03/24 13:52:43;;;;;;;11.05;6.60;;;;;;;20.69;24.79;102747.56;16141579;19;130279;-45
2022/03/24 13:58:19;;;;;;;13.63;7.00;;;;;;;20.65;24.86;102746.28;16139713;19;129632;-45
2022/03/24 14:03:43;;;;;;;11.02;7.35;;;;;;;20.62;25.14;102746.69;16138778;19;129107;-47
2022/03/24 14:09:05;;;;;;;11.93;6.28;;;;;;;20.60;24.92;102746.94;16141179;19;129716;-45
2022/03/24 14:14:27;;;;;;;13.27;7.05;;;;;;;20.56;25.23;102742.03;16135267;19;129540;-45
2022/03/24 14:19:56;;;;;;;12.55;7.07;;;;;;;20.55;24.91;102731.97;16140541;19;129552;-45
2022/03/24 14:25:17;;;;;;;12.45;7.18;;;;;;;20.52;25.19;102722.13;16139373;19;129227;-46
2022/03/24 14:30:39;;;;;;;12.32;6.15;;;;;;;20.50;25.41;102710.38;16138820;19;129415;-45
2022/03/24 14:36:01;;;;;;;10.82;5.63;;;;;;;20.50;25.41;102713.16;16139242;19;129661;-45
2022/03/24 14:41:24;;;;;;;9.98;5.50;;;;;;;20.50;25.09;102709.50;16134442;19;130711;-45
2022/03/24 14:46:46;;;;;;;13.85;5.85;;;;;;;20.49;25.22;102714.22;16129425;19;132143;-50
2022/03/24 14:52:08;;;;;;;13.93;6.03;;;;;;;20.47;25.13;102704.41;16138052;19;129422;-46
2022/03/24 14:57:30;;;;;;;12.30;6.43;;;;;;;20.42;25.43;102696.72;16138359;19;130160;-50
2022/03/24 15:02:52;;;;;;;12.15;5.70;;;;;;;20.43;25.15;102695.63;16133052;19;129036;-46
2022/03/24 15:08:14;;;;;;;15.05;6.25;;;;;;;20.38;25.08;102703.75;16132865;19;130224;-45
2022/03/24 15:13:36;;;;;;;12.93;6.22;;;;;;;20.37;25.03;102688.97;16134072;19;129207;-47
2022/03/24 15:18:58;;;;;;;13.95;5.95;;;;;;;20.35;25.21;102690.28;16133704;19;129394;-47
2022/03/24 15:24:19;;;;;;;12.55;5.82;;;;;;;20.33;25.63;102687.72;16128994;19;129009;-48
2022/03/24 15:29:41;;;;;;;12.32;6.43;;;;;;;20.31;25.26;102678.75;16129676;19;129209;-50
2022/03/24 15:35:04;;;;;;;11.30;5.85;;;;;;;20.29;25.26;102681.75;16132306;19;129613;-46
2022/03/24 15:40:27;;;;;;;11.55;6.30;;;;;;;20.28;25.30;102679.16;16132249;19;130530;-48
2022/03/24 15:45:50;;;;;;;11.63;5.70;;;;;;;20.27;25.43;102683.00;16130404;19;129386;-45
2022/03/24 15:51:12;;;;;;;12.65;5.85;;;;;;;20.25;25.36;102686.03;16133304;19;130490;-48
2022/03/24 15:56:37;;;;;;;10.65;5.43;;;;;;;20.21;25.08;102681.94;16137874;19;131725;-45
2022/03/24 16:01:59;;;;;;;13.70;5.83;;;;;;;20.20;25.07;102688.56;16146561;19;129175;-46
2022/03/24 16:07:21;;;;;;;16.00;6.65;;;;;;;20.18;24.94;102679.63;16146191;19;129794;-47
2022/03/24 16:12:43;;;;;;;9.35;6.32;;;;;;;20.18;24.87;102696.28;16146723;19;129771;-45
2022/03/24 16:18:05;;;;;;;11.23;6.53;;;;;;;20.16;25.19;102686.44;16144382;19;129358;-49
2022/03/24 16:23:27;;;;;;;10.48;6.00;;;;;;;20.13;25.00;102687.72;16140465;19;129708;-50
2022/03/24 16:28:49;;;;;;;13.15;6.15;;;;;;;20.12;25.06;102692.41;16144921;19;129876;-45
2022/03/24 16:34:11;;;;;;;13.38;6.72;;;;;;;20.11;25.39;102695.41;16148634;19;129115;-56
2022/03/24 16:39:33;;;;;;;15.00;6.95;;;;;;;20.09;24.93;102695.66;16148064;19;129606;-53
2022/03/24 16:44:54;;;;;;;15.88;6.65;;;;;;;20.10;25.43;102699.25;16142721;19;129576;-56
2022/03/24 16:50:20;;;;;;;11.32;6.75;;;;;;;20.09;25.00;102706.75;16135820;19;130757;-49
2022/03/24 16:55:42;;;;;;;;;;;;;;;20.06;25.65;102709.13;16143787;19;129054;-49
2022/03/24 17:01:05;;;;;;;19.65;9.88;;;;;;;20.08;25.43;102713.38;16141121;19;129656;-49
2022/03/24 17:06:27;;;;;;;20.17;9.80;;;;;;;20.08;26.12;102709.72;16143443;19;129528;-53
2022/03/24 17:11:49;;;;;;;19.40;9.23;;;;;;;20.15;26.84;102713.38;16144858;19;128887;-53
2022/03/24 17:17:10;;;;;;;17.88;8.85;;;;;;;20.31;26.16;102723.22;16142028;19;129375;-55
2022/03/24 17:22:34;;;;;;;18.25;8.68;;;;;;;20.44;25.62;102714.00;16138934;19;131832;-50
2022/03/24 17:27:55;;;;;;;18.42;8.02;;;;;;;20.54;25.54;102722.78;16136514;19;133053;-48
2022/03/24 17:33:17;;;;;;;16.05;8.00;;;;;;;20.60;25.98;102724.69;16138071;19;130344;-46
2022/03/24 17:38:39;;;;;;;13.98;7.53;;;;;;;20.62;25.93;102729.19;16141577;19;129443;-48
2022/03/24 17:44:22;;;;;;;16.05;8.25;;;;;;;20.62;25.66;102729.19;16137578;19;129496;-50
2022/03/24 17:49:44;;;;;;;14.55;6.80;;;;;;;20.59;25.84;102736.88;16141085;19;129404;-46
2022/03/24 17:55:07;;;;;;;18.67;8.13;;;;;;;20.52;25.77;102736.03;16135884;19;129810;-45
2022/03/24 18:00:29;;;;;;;17.23;7.60;;;;;;;20.50;25.60;102743.72;16133980;19;131538;-44
2022/03/24 18:05:51;;;;;;;19.77;7.90;;;;;;;20.47;25.78;102737.75;16132168;19;129335;-46
2022/03/24 18:11:17;;;;;;;27.85;7.78;;;;;;;20.42;25.77;102738.41;16140885;19;131950;-46
2022/03/24 18:16:39;;;;;;;14.20;7.00;;;;;;;20.38;25.68;102739.91;16140241;19;131062;-46
2022/03/24 18:22:01;;;;;;;20.25;6.57;;;;;;;20.34;25.85;102750.59;16138212;19;129754;-45
2022/03/24 18:27:23;;;;;;;24.98;7.50;;;;;;;20.31;26.01;102755.72;16138490;19;130063;-44
2022/03/24 18:32:45;;;;;;;14.13;6.72;;;;;;;20.26;25.70;102757.22;16138771;19;129609;-45
2022/03/24 18:38:07;;;;;;;19.65;6.28;;;;;;;20.22;26.08;102757.84;16138062;19;129376;-46
2022/03/24 18:43:30;;;;;;;14.55;6.20;;;;;;;20.19;26.17;102764.66;16134764;19;129356;-47
2022/03/24 18:48:52;;;;;;;16.25;5.90;;;;;;;20.17;26.37;102758.50;16134155;19;130242;-44
2022/03/24 18:54:14;;;;;;;15.00;6.20;;;;;;;20.17;25.92;102765.97;16130866;19;129179;-49
2022/03/24 18:59:39;;;;;;;10.87;5.90;;;;;;;20.14;26.37;102773.66;16130534;19;129866;-45
2022/03/24 19:05:01;;;;;;;12.70;5.40;;;;;;;20.10;26.28;102772.38;16129315;19;129932;-46
2022/03/24 19:10:24;;;;;;;16.48;5.85;;;;;;;20.06;26.12;102767.47;16129530;19;129146;-49
2022/03/24 19:15:46;;;;;;;11.50;5.65;;;;;;;20.08;26.60;102774.50;16123538;19;129616;-44
2022/03/24 19:21:08;;;;;;;10.95;5.38;;;;;;;20.11;26.55;102767.66;16124699;19;129567;-49
2022/03/24 19:26:30;;;;;;;14.02;4.75;;;;;;;20.16;26.77;102770.69;16124382;19;129806;-49
2022/03/24 19:31:52;;;;;;;19.98;6.85;;;;;;;20.16;26.71;102776.22;16132212;19;129615;-48
2022/03/24 19:37:14;;;;;;;11.93;5.13;;;;;;;20.16;27.06;102781.78;16144101;19;129776;-47
2022/03/24 19:42:36;;;;;;;18.65;5.25;;;;;;;20.16;26.99;102780.91;16138859;19;131491;-45
2022/03/24 19:47:59;;;;;;;14.10;5.20;;;;;;;20.17;27.19;102779.84;16143001;19;129881;-46
2022/03/24 19:53:22;;;;;;;10.23;4.77;;;;;;;20.23;27.19;102792.91;16139255;19;129562;-48
2022/03/24 19:58:44;;;;;;;11.05;4.78;;;;;;;20.31;26.84;102789.09;16142636;19;129528;-45
2022/03/24 20:04:06;;;;;;;12.27;4.70;;;;;;;20.40;26.90;102785.84;16139620;19;130017;-46
2022/03/24 20:09:28;;;;;;;9.10;4.80;;;;;;;20.59;26.89;102791.66;16146136;19;130430;-44
2022/03/24 20:14:50;;;;;;;13.38;4.60;;;;;;;20.85;26.84;102782.44;16146843;19;130913;-46
2022/03/24 20:20:14;;;;;;;14.05;4.28;;;;;;;21.14;26.94;102794.16;16146740;19;129340;-45
2022/03/24 20:25:40;;;;;;;13.00;4.68;;;;;;;21.41;26.66;102802.44;16142655;19;129836;-48
2022/03/24 20:31:04;;;;;;;11.20;4.53;;;;;;;21.58;26.28;102807.53;16144679;19;130833;-45
2022/03/24 20:36:26;;;;;;;16.80;4.80;;;;;;;21.69;26.90;102817.13;16145499;19;128998;-46
2022/03/24 20:41:47;;;;;;;13.88;5.57;;;;;;;21.72;26.50;102817.53;16140037;19;128945;-46
2022/03/24 20:47:09;;;;;;;12.57;5.15;;;;;;;21.73;26.54;102823.94;16140411;19;130203;-46
2022/03/24 20:52:31;;;;;;;10.80;5.40;;;;;;;21.71;26.63;102820.56;16143498;19;129626;-49
2022/03/24 20:57:53;;;;;;;20.05;5.93;;;;;;;21.67;27.03;102822.91;16144220;19;130596;-50
2022/03/24 21:03:15;;;;;;;12.75;4.97;;;;;;;21.61;26.91;102823.81;16140913;19;129295;-46
2022/03/24 21:08:38;;;;;;;11.35;5.70;;;;;;;21.54;26.75;102820.22;16142520;19;129529;-47
2022/03/24 21:14:00;;;;;;;15.75;5.47;;;;;;;21.46;27.38;102818.50;16141901;19;129721;-48
2022/03/24 21:19:22;;;;;;;12.60;5.30;;;;;;;21.38;27.09;102822.38;16138263;19;129101;-45
2022/03/24 21:24:44;;;;;;;17.48;6.30;;;;;;;21.29;27.19;102821.75;16135382;19;129995;-48
2022/03/24 21:30:07;;;;;;;12.25;5.47;;;;;;;21.18;27.72;102826.03;16137658;19;130546;-46
2022/03/24 21:35:29;;;;;;;16.58;6.10;;;;;;;21.11;27.63;102828.00;16139883;19;129855;-48
2022/03/24 21:40:51;;;;;;;13.60;6.78;;;;;;;21.01;27.68;102836.78;16135995;19;129282;-49
2022/03/24 21:46:13;;;;;;;15.57;6.78;;;;;;;20.92;27.73;102835.28;16130538;19;129460;-52
2022/03/24 21:51:35;;;;;;;15.70;7.43;;;;;;;20.82;27.39;102835.72;16137235;19;129814;-47
2022/03/24 21:56:57;;;;;;;10.85;7.35;;;;;;;20.73;27.61;102834.22;16136251;19;130306;-49
2022/03/24 22:02:19;;;;;;;12.00;7.45;;;;;;;20.66;27.61;102850.88;16137922;19;130408;-46
2022/03/24 22:07:41;;;;;;;14.07;7.82;;;;;;;20.60;27.49;102849.81;16137041;19;129285;-46
2022/03/24 22:13:04;;;;;;;13.85;7.47;;;;;;;20.53;27.86;102846.19;16136646;19;129092;-50
2022/03/24 22:18:26;;;;;;;13.90;8.10;;;;;;;20.47;27.75;102851.75;16136052;19;129548;-46
2022/03/24 22:23:47;;;;;;;14.85;8.80;;;;;;;20.43;27.74;102854.09;16135059;19;129486;-47
2022/03/24 22:29:10;;;;;;;17.35;8.55;;;;;;;20.38;28.02;102845.53;16137307;19;129235;-46
2022/03/24 22:34:32;;;;;;;12.48;8.15;;;;;;;20.33;28.09;102846.16;16136341;19;129585;-48
2022/03/24 22:39:53;;;;;;;13.02;7.72;;;;;;;20.30;28.02;102843.81;16131624;19;130669;-48
2022/03/24 22:45:15;;;;;;;12.38;8.40;;;;;;;20.27;27.81;102833.09;16130255;19;129501;-48
2022/03/24 22:50:37;;;;;;;12.43;8.85;;;;;;;20.23;27.88;102842.94;16135119;19;130038;-45
2022/03/24 22:56:02;;;;;;;13.45;8.57;;;;;;;20.20;27.80;102844.19;16134936;19;129405;-48
2022/03/24 23:01:24;;;;;;;14.67;8.90;;;;;;;20.17;27.61;102843.78;16135653;19;129555;-51
2022/03/24 23:06:49;;;;;;;12.83;9.07;;;;;;;20.14;28.02;102850.63;16127333;19;131607;-46
2022/03/24 23:12:11;;;;;;;15.18;9.80;;;;;;;20.10;27.62;102843.75;16134623;19;129568;-49
2022/03/24 23:17:32;;;;;;;16.42;9.20;;;;;;;20.06;27.63;102845.25;16131404;19;133031;-48
2022/03/24 23:22:54;;;;;;;14.10;9.93;;;;;;;20.03;27.62;102840.94;16133044;19;129521;-45
2022/03/24 23:28:16;;;;;;;12.88;9.02;;;;;;;20.02;27.86;102846.72;16129929;19;129546;-43
2022/03/24 23:33:38;;;;;;;16.88;11.15;;;;;;;19.97;27.74;102842.63;16131579;19;129494;-46
2022/03/24 23:39:00;;;;;;;14.10;9.80;;;;;;;19.94;28.15;102848.56;16126685;19;131703;-51
2022/03/24 23:44:22;;;;;;;14.73;10.25;;;;;;;19.91;27.77;102845.38;16128498;19;129002;-48
2022/03/24 23:49:44;;;;;;;12.55;10.10;;;;;;;19.89;27.94;102841.94;16130366;19;129828;-49
2022/03/24 23:55:06;;;;;;;14.32;10.70;;;;;;;19.87;28.14;102842.16;16127753;19;129869;-45
